sensor_id;sensor_type;location;lat;lon;timestamp;pressure;altitude;pressure_sealevel;temperature;humidity
12213;BME280;6169;44.158;22.788;2023-06-22T00:02:52;101220.97;;;26.36;50.56
12213;BME280;6169;44.158;22.788;2023-06-22T00:07:54;101214.72;;;26.39;49.41
12213;BME280;6169;44.158;22.788;2023-06-22T00:12:56;101218.06;;;26.06;51.16
12213;BME280;6169;44.158;22.788;2023-06-22T00:17:59;101227.38;;;26.10;50.78
12213;BME280;6169;44.158;22.788;2023-06-22T00:23:02;101233.94;;;25.88;50.56
12213;BME280;6169;44.158;22.788;2023-06-22T00:28:08;101250.97;;;25.78;50.68
12213;BME280;6169;44.158;22.788;2023-06-22T00:33:11;101252.75;;;25.39;51.90
12213;BME280;6169;44.158;22.788;2023-06-22T00:38:13;101263.75;;;25.79;50.87
12213;BME280;6169;44.158;22.788;2023-06-22T00:43:15;101277.16;;;25.77;50.45
12213;BME280;6169;44.158;22.788;2023-06-22T00:48:18;101268.50;;;25.70;50.86
12213;BME280;6169;44.158;22.788;2023-06-22T00:53:20;101274.25;;;25.82;51.66
12213;BME280;6169;44.158;22.788;2023-06-22T00:58:22;101262.16;;;25.87;50.26
12213;BME280;6169;44.158;22.788;2023-06-22T01:03:27;101254.88;;;25.59;50.77
12213;BME280;6169;44.158;22.788;2023-06-22T01:08:30;101269.97;;;25.76;49.88
12213;BME280;6169;44.158;22.788;2023-06-22T01:13:35;101268.13;;;25.36;50.54
12213;BME280;6169;44.158;22.788;2023-06-22T01:18:41;101262.94;;;25.61;50.03
12213;BME280;6169;44.158;22.788;2023-06-22T01:23:50;101265.56;;;25.75;50.39
12213;BME280;6169;44.158;22.788;2023-06-22T01:28:55;101262.09;;;25.60;49.85
12213;BME280;6169;44.158;22.788;2023-06-22T01:33:59;101256.50;;;25.60;49.00
12213;BME280;6169;44.158;22.788;2023-06-22T01:39:02;101257.13;;;25.31;50.50
12213;BME280;6169;44.158;22.788;2023-06-22T01:44:06;101276.63;;;25.40;49.77
12213;BME280;6169;44.158;22.788;2023-06-22T01:49:08;101287.75;;;25.31;49.93
12213;BME280;6169;44.158;22.788;2023-06-22T01:54:11;101303.75;;;24.86;50.98
12213;BME280;6169;44.158;22.788;2023-06-22T01:59:15;101313.88;;;24.59;53.35
12213;BME280;6169;44.158;22.788;2023-06-22T02:04:19;101309.22;;;25.00;52.71
12213;BME280;6169;44.158;22.788;2023-06-22T02:09:22;101315.47;;;25.05;51.89
12213;BME280;6169;44.158;22.788;2023-06-22T02:14:27;101312.16;;;25.03;52.37
12213;BME280;6169;44.158;22.788;2023-06-22T02:19:30;101311.94;;;25.22;51.35
12213;BME280;6169;44.158;22.788;2023-06-22T02:24:33;101315.06;;;24.89;52.41
12213;BME280;6169;44.158;22.788;2023-06-22T02:29:36;101318.72;;;24.76;52.00
12213;BME280;6169;44.158;22.788;2023-06-22T02:34:38;101312.81;;;24.69;51.55
12213;BME280;6169;44.158;22.788;2023-06-22T02:39:40;101339.66;;;24.06;52.53
12213;BME280;6169;44.158;22.788;2023-06-22T02:44:44;101339.16;;;24.71;51.02
12213;BME280;6169;44.158;22.788;2023-06-22T02:49:45;101322.09;;;24.42;52.88
12213;BME280;6169;44.158;22.788;2023-06-22T02:54:47;101318.25;;;24.52;52.02
12213;BME280;6169;44.158;22.788;2023-06-22T02:59:51;101319.06;;;24.75;50.90
12213;BME280;6169;44.158;22.788;2023-06-22T03:04:52;101312.06;;;24.55;50.55
12213;BME280;6169;44.158;22.788;2023-06-22T03:09:54;101313.28;;;24.17;51.95
12213;BME280;6169;44.158;22.788;2023-06-22T03:14:57;101304.53;;;24.10;52.64
12213;BME280;6169;44.158;22.788;2023-06-22T03:19:59;101306.03;;;24.61;52.93
12213;BME280;6169;44.158;22.788;2023-06-22T03:25:01;101305.44;;;24.64;51.25
12213;BME280;6169;44.158;22.788;2023-06-22T03:30:05;101310.53;;;25.02;50.23
12213;BME280;6169;44.158;22.788;2023-06-22T03:35:08;101307.06;;;25.28;49.62
12213;BME280;6169;44.158;22.788;2023-06-22T03:40:11;101310.81;;;25.89;47.89
12213;BME280;6169;44.158;22.788;2023-06-22T03:45:14;101322.72;;;25.72;48.79
12213;BME280;6169;44.158;22.788;2023-06-22T03:50:16;101330.56;;;24.37;53.90
12213;BME280;6169;44.158;22.788;2023-06-22T03:55:20;101324.94;;;24.50;53.95
12213;BME280;6169;44.158;22.788;2023-06-22T04:00:23;101314.72;;;24.15;55.62
12213;BME280;6169;44.158;22.788;2023-06-22T04:05:25;101323.88;;;24.60;54.57
12213;BME280;6169;44.158;22.788;2023-06-22T04:10:27;101333.69;;;24.89;53.60
12213;BME280;6169;44.158;22.788;2023-06-22T04:15:30;101374.88;;;24.19;56.98
12213;BME280;6169;44.158;22.788;2023-06-22T04:20:32;101376.28;;;24.31;56.97
12213;BME280;6169;44.158;22.788;2023-06-22T04:25:34;101387.06;;;24.91;55.24
12213;BME280;6169;44.158;22.788;2023-06-22T04:30:37;101401.22;;;24.44;57.38
12213;BME280;6169;44.158;22.788;2023-06-22T04:35:46;101389.25;;;25.34;54.78
12213;BME280;6169;44.158;22.788;2023-06-22T04:40:48;101398.66;;;25.55;54.43
12213;BME280;6169;44.158;22.788;2023-06-22T04:45:52;101401.91;;;25.49;54.35
12213;BME280;6169;44.158;22.788;2023-06-22T04:50:54;101403.78;;;25.22;55.96
12213;BME280;6169;44.158;22.788;2023-06-22T04:55:55;101406.78;;;25.43;55.54
12213;BME280;6169;44.158;22.788;2023-06-22T05:00:59;101415.59;;;25.05;56.58
12213;BME280;6169;44.158;22.788;2023-06-22T05:06:01;101413.41;;;24.93;58.31
12213;BME280;6169;44.158;22.788;2023-06-22T05:11:03;101417.44;;;25.81;55.13
12213;BME280;6169;44.158;22.788;2023-06-22T05:16:06;101425.34;;;26.14;53.91
12213;BME280;6169;44.158;22.788;2023-06-22T05:21:08;101428.22;;;26.40;53.06
12213;BME280;6169;44.158;22.788;2023-06-22T05:26:10;101426.38;;;26.70;52.91
12213;BME280;6169;44.158;22.788;2023-06-22T05:31:14;101425.97;;;27.24;50.40
12213;BME280;6169;44.158;22.788;2023-06-22T05:36:16;101409.66;;;27.34;49.87
12213;BME280;6169;44.158;22.788;2023-06-22T05:41:21;101399.13;;;27.40;48.74
12213;BME280;6169;44.158;22.788;2023-06-22T05:46:24;101392.25;;;26.99;50.41
12213;BME280;6169;44.158;22.788;2023-06-22T05:51:26;101401.03;;;27.19;48.00
12213;BME280;6169;44.158;22.788;2023-06-22T05:56:28;101410.59;;;27.56;47.20
12213;BME280;6169;44.158;22.788;2023-06-22T06:01:31;101392.28;;;27.29;46.29
12213;BME280;6169;44.158;22.788;2023-06-22T06:06:35;101387.94;;;27.49;45.95
12213;BME280;6169;44.158;22.788;2023-06-22T06:11:37;101381.53;;;28.08;45.45
12213;BME280;6169;44.158;22.788;2023-06-22T06:16:40;101378.75;;;28.29;43.87
12213;BME280;6169;44.158;22.788;2023-06-22T06:21:42;101382.78;;;29.06;42.92
12213;BME280;6169;44.158;22.788;2023-06-22T06:26:44;101373.22;;;29.32;42.93
12213;BME280;6169;44.158;22.788;2023-06-22T06:31:47;101386.66;;;29.63;41.11
12213;BME280;6169;44.158;22.788;2023-06-22T06:36:49;101401.38;;;28.90;43.24
12213;BME280;6169;44.158;22.788;2023-06-22T06:41:51;101410.84;;;28.64;44.09
12213;BME280;6169;44.158;22.788;2023-06-22T06:46:54;101402.94;;;27.74;46.26
12213;BME280;6169;44.158;22.788;2023-06-22T06:51:56;101411.13;;;28.30;43.90
12213;BME280;6169;44.158;22.788;2023-06-22T06:56:57;101408.75;;;29.65;41.77
12213;BME280;6169;44.158;22.788;2023-06-22T07:02:01;101415.97;;;29.90;40.90
12213;BME280;6169;44.158;22.788;2023-06-22T07:07:03;101405.13;;;29.64;40.36
12213;BME280;6169;44.158;22.788;2023-06-22T07:12:05;101417.25;;;29.68;38.64
12213;BME280;6169;44.158;22.788;2023-06-22T07:17:08;101409.75;;;30.50;38.51
12213;BME280;6169;44.158;22.788;2023-06-22T07:22:10;101400.44;;;30.33;39.58
12213;BME280;6169;44.158;22.788;2023-06-22T07:27:12;101392.22;;;30.00;38.78
12213;BME280;6169;44.158;22.788;2023-06-22T07:32:18;101380.97;;;30.24;39.38
12213;BME280;6169;44.158;22.788;2023-06-22T07:37:20;101385.53;;;30.17;38.59
12213;BME280;6169;44.158;22.788;2023-06-22T07:42:22;101376.53;;;30.52;37.43
12213;BME280;6169;44.158;22.788;2023-06-22T07:47:25;101390.66;;;30.83;37.12
12213;BME280;6169;44.158;22.788;2023-06-22T07:52:28;101392.00;;;31.18;37.05
12213;BME280;6169;44.158;22.788;2023-06-22T07:57:30;101391.00;;;31.10;37.04
12213;BME280;6169;44.158;22.788;2023-06-22T08:02:35;101393.81;;;30.66;37.56
12213;BME280;6169;44.158;22.788;2023-06-22T08:07:37;101401.84;;;29.87;37.87
12213;BME280;6169;44.158;22.788;2023-06-22T08:12:39;101402.09;;;30.34;37.01
12213;BME280;6169;44.158;22.788;2023-06-22T08:17:43;101414.44;;;30.45;36.39
12213;BME280;6169;44.158;22.788;2023-06-22T08:22:45;101418.25;;;30.65;37.72
12213;BME280;6169;44.158;22.788;2023-06-22T08:27:47;101405.19;;;31.49;35.87
12213;BME280;6169;44.158;22.788;2023-06-22T08:32:50;101395.50;;;31.46;36.33
12213;BME280;6169;44.158;22.788;2023-06-22T08:37:52;101384.94;;;31.55;36.50
12213;BME280;6169;44.158;22.788;2023-06-22T08:42:54;101381.25;;;31.87;35.59
12213;BME280;6169;44.158;22.788;2023-06-22T08:47:58;101373.66;;;31.71;35.52
12213;BME280;6169;44.158;22.788;2023-06-22T08:52:59;101380.47;;;31.70;35.79
12213;BME280;6169;44.158;22.788;2023-06-22T08:58:01;101390.44;;;31.68;35.06
12213;BME280;6169;44.158;22.788;2023-06-22T09:03:05;101389.63;;;31.20;36.74
12213;BME280;6169;44.158;22.788;2023-06-22T09:08:08;101383.84;;;31.95;35.46
12213;BME280;6169;44.158;22.788;2023-06-22T09:13:10;101368.28;;;32.17;36.15
12213;BME280;6169;44.158;22.788;2023-06-22T09:18:13;101369.06;;;31.83;36.12
12213;BME280;6169;44.158;22.788;2023-06-22T09:23:15;101359.59;;;32.26;36.21
12213;BME280;6169;44.158;22.788;2023-06-22T09:28:17;101360.88;;;33.13;35.55
12213;BME280;6169;44.158;22.788;2023-06-22T09:33:20;101354.28;;;32.83;35.06
12213;BME280;6169;44.158;22.788;2023-06-22T09:38:22;101348.31;;;31.87;36.09
12213;BME280;6169;44.158;22.788;2023-06-22T09:43:24;101364.91;;;31.92;37.26
12213;BME280;6169;44.158;22.788;2023-06-22T09:48:27;101362.50;;;32.49;36.26
12213;BME280;6169;44.158;22.788;2023-06-22T09:53:29;101372.47;;;32.89;33.85
12213;BME280;6169;44.158;22.788;2023-06-22T09:58:31;101376.13;;;33.12;34.62
12213;BME280;6169;44.158;22.788;2023-06-22T10:03:34;101385.72;;;34.11;32.95
12213;BME280;6169;44.158;22.788;2023-06-22T10:08:36;101388.09;;;32.63;34.56
12213;BME280;6169;44.158;22.788;2023-06-22T10:13:39;101384.44;;;33.51;33.40
12213;BME280;6169;44.158;22.788;2023-06-22T10:18:42;101381.25;;;34.06;32.63
12213;BME280;6169;44.158;22.788;2023-06-22T10:23:44;101384.09;;;32.06;34.23
12213;BME280;6169;44.158;22.788;2023-06-22T10:28:46;101372.03;;;32.87;34.77
12213;BME280;6169;44.158;22.788;2023-06-22T10:33:49;101368.84;;;33.08;34.50
12213;BME280;6169;44.158;22.788;2023-06-22T10:38:51;101372.50;;;33.12;34.09
12213;BME280;6169;44.158;22.788;2023-06-22T10:43:53;101366.97;;;32.73;36.10
12213;BME280;6169;44.158;22.788;2023-06-22T10:48:56;101366.41;;;32.87;34.64
12213;BME280;6169;44.158;22.788;2023-06-22T10:53:59;101372.81;;;33.07;35.41
12213;BME280;6169;44.158;22.788;2023-06-22T10:59:02;101373.44;;;32.35;36.21
12213;BME280;6169;44.158;22.788;2023-06-22T11:04:05;101372.94;;;32.91;37.28
12213;BME280;6169;44.158;22.788;2023-06-22T11:09:07;101372.50;;;33.12;36.46
12213;BME280;6169;44.158;22.788;2023-06-22T11:14:08;101377.47;;;33.42;36.32
12213;BME280;6169;44.158;22.788;2023-06-22T11:19:12;101373.81;;;33.18;37.03
12213;BME280;6169;44.158;22.788;2023-06-22T11:24:14;101365.91;;;33.50;36.42
12213;BME280;6169;44.158;22.788;2023-06-22T11:29:16;101363.28;;;32.92;36.24
12213;BME280;6169;44.158;22.788;2023-06-22T11:34:19;101363.38;;;32.53;36.76
12213;BME280;6169;44.158;22.788;2023-06-22T11:39:21;101357.22;;;32.28;38.21
12213;BME280;6169;44.158;22.788;2023-06-22T11:44:23;101366.19;;;32.53;37.66
12213;BME280;6169;44.158;22.788;2023-06-22T11:49:26;101355.72;;;31.95;38.29
12213;BME280;6169;44.158;22.788;2023-06-22T11:54:28;101360.25;;;32.19;38.43
12213;BME280;6169;44.158;22.788;2023-06-22T11:59:30;101348.25;;;32.22;37.41
12213;BME280;6169;44.158;22.788;2023-06-22T12:04:33;101351.16;;;32.88;36.82
12213;BME280;6169;44.158;22.788;2023-06-22T12:09:35;101348.63;;;32.40;38.19
12213;BME280;6169;44.158;22.788;2023-06-22T12:14:36;101343.22;;;32.71;37.08
12213;BME280;6169;44.158;22.788;2023-06-22T12:19:40;101337.75;;;32.39;39.75
12213;BME280;6169;44.158;22.788;2023-06-22T12:24:42;101330.56;;;32.02;39.25
12213;BME280;6169;44.158;22.788;2023-06-22T12:29:45;101322.19;;;32.45;38.53
12213;BME280;6169;44.158;22.788;2023-06-22T12:34:49;101325.09;;;32.29;39.54
12213;BME280;6169;44.158;22.788;2023-06-22T12:39:50;101323.13;;;32.10;41.10
12213;BME280;6169;44.158;22.788;2023-06-22T12:44:52;101323.25;;;32.37;41.16
12213;BME280;6169;44.158;22.788;2023-06-22T12:49:55;101319.50;;;32.72;40.49
12213;BME280;6169;44.158;22.788;2023-06-22T12:54:57;101314.00;;;33.02;39.31
12213;BME280;6169;44.158;22.788;2023-06-22T12:59:59;101312.91;;;32.64;39.38
12213;BME280;6169;44.158;22.788;2023-06-22T13:05:02;101300.78;;;32.60;38.13
12213;BME280;6169;44.158;22.788;2023-06-22T13:10:06;101292.25;;;32.99;38.34
12213;BME280;6169;44.158;22.788;2023-06-22T13:15:08;101293.00;;;33.22;38.11
12213;BME280;6169;44.158;22.788;2023-06-22T13:20:12;101292.34;;;32.83;38.97
12213;BME280;6169;44.158;22.788;2023-06-22T13:25:14;101285.41;;;32.54;40.02
12213;BME280;6169;44.158;22.788;2023-06-22T13:30:19;101279.91;;;32.61;38.75
12213;BME280;6169;44.158;22.788;2023-06-22T13:35:22;101279.88;;;32.84;38.57
12213;BME280;6169;44.158;22.788;2023-06-22T13:40:24;101275.72;;;32.97;39.66
12213;BME280;6169;44.158;22.788;2023-06-22T13:45:26;101266.31;;;32.66;38.62
12213;BME280;6169;44.158;22.788;2023-06-22T13:50:30;101259.81;;;32.85;38.09
12213;BME280;6169;44.158;22.788;2023-06-22T13:55:31;101268.13;;;33.01;37.71
12213;BME280;6169;44.158;22.788;2023-06-22T14:00:33;101274.09;;;32.96;37.80
12213;BME280;6169;44.158;22.788;2023-06-22T14:05:36;101269.06;;;32.86;37.71
12213;BME280;6169;44.158;22.788;2023-06-22T14:10:38;101256.69;;;33.17;36.64
12213;BME280;6169;44.158;22.788;2023-06-22T14:15:40;101252.97;;;33.36;35.88
12213;BME280;6169;44.158;22.788;2023-06-22T14:20:44;101250.44;;;33.27;35.27
12213;BME280;6169;44.158;22.788;2023-06-22T14:25:48;101237.16;;;33.28;36.67
12213;BME280;6169;44.158;22.788;2023-06-22T14:30:49;101229.72;;;33.43;36.28
12213;BME280;6169;44.158;22.788;2023-06-22T14:35:53;101241.69;;;33.96;35.68
12213;BME280;6169;44.158;22.788;2023-06-22T14:40:54;101237.25;;;33.95;35.42
12213;BME280;6169;44.158;22.788;2023-06-22T14:45:56;101221.94;;;33.63;35.70
12213;BME280;6169;44.158;22.788;2023-06-22T14:50:59;101214.69;;;33.95;34.87
12213;BME280;6169;44.158;22.788;2023-06-22T14:56:01;101207.69;;;33.52;35.17
12213;BME280;6169;44.158;22.788;2023-06-22T15:01:03;101192.03;;;34.26;35.41
12213;BME280;6169;44.158;22.788;2023-06-22T15:06:07;101190.84;;;34.30;34.04
12213;BME280;6169;44.158;22.788;2023-06-22T15:11:09;101204.22;;;33.05;34.96
12213;BME280;6169;44.158;22.788;2023-06-22T15:16:11;101201.47;;;33.09;35.05
12213;BME280;6169;44.158;22.788;2023-06-22T15:21:15;101203.59;;;33.16;35.56
12213;BME280;6169;44.158;22.788;2023-06-22T15:26:17;101198.56;;;33.02;35.53
12213;BME280;6169;44.158;22.788;2023-06-22T15:31:19;101198.09;;;33.00;34.38
12213;BME280;6169;44.158;22.788;2023-06-22T15:36:22;101204.16;;;33.89;33.95
12213;BME280;6169;44.158;22.788;2023-06-22T15:41:24;101196.63;;;34.00;34.19
12213;BME280;6169;44.158;22.788;2023-06-22T15:46:25;101200.88;;;33.26;35.60
12213;BME280;6169;44.158;22.788;2023-06-22T15:51:29;101202.47;;;33.50;36.29
12213;BME280;6169;44.158;22.788;2023-06-22T15:56:30;101202.25;;;33.36;37.40
12213;BME280;6169;44.158;22.788;2023-06-22T16:01:32;101200.81;;;32.46;39.11
12213;BME280;6169;44.158;22.788;2023-06-22T16:06:35;101206.56;;;33.00;38.14
12213;BME280;6169;44.158;22.788;2023-06-22T16:11:37;101206.41;;;32.43;38.56
12213;BME280;6169;44.158;22.788;2023-06-22T16:16:39;101213.94;;;32.39;38.37
12213;BME280;6169;44.158;22.788;2023-06-22T16:21:42;101216.91;;;32.46;38.75
12213;BME280;6169;44.158;22.788;2023-06-22T16:26:44;101215.69;;;32.24;38.53
12213;BME280;6169;44.158;22.788;2023-06-22T16:31:47;101209.56;;;31.99;38.60
12213;BME280;6169;44.158;22.788;2023-06-22T16:36:51;101205.16;;;31.98;38.21
12213;BME280;6169;44.158;22.788;2023-06-22T16:41:52;101204.69;;;32.38;38.88
12213;BME280;6169;44.158;22.788;2023-06-22T16:46:54;101213.56;;;32.86;37.33
12213;BME280;6169;44.158;22.788;2023-06-22T16:51:57;101209.69;;;32.95;37.95
12213;BME280;6169;44.158;22.788;2023-06-22T16:56:59;101210.22;;;33.04;38.54
12213;BME280;6169;44.158;22.788;2023-06-22T17:02:02;101213.44;;;33.02;38.47
12213;BME280;6169;44.158;22.788;2023-06-22T17:07:07;101206.41;;;32.92;38.47
12213;BME280;6169;44.158;22.788;2023-06-22T17:12:09;101208.88;;;32.25;39.28
12213;BME280;6169;44.158;22.788;2023-06-22T17:17:12;101210.56;;;32.49;39.05
12213;BME280;6169;44.158;22.788;2023-06-22T17:22:16;101210.47;;;32.68;41.07
12213;BME280;6169;44.158;22.788;2023-06-22T17:27:26;101206.63;;;32.54;42.08
12213;BME280;6169;44.158;22.788;2023-06-22T17:32:29;101212.25;;;32.80;43.00
12213;BME280;6169;44.158;22.788;2023-06-22T17:37:50;101207.50;;;32.38;43.44
12213;BME280;6169;44.158;22.788;2023-06-22T17:42:52;101207.56;;;31.99;42.65
12213;BME280;6169;44.158;22.788;2023-06-22T17:48:04;101201.63;;;32.01;44.21
12213;BME280;6169;44.158;22.788;2023-06-22T17:53:10;101200.34;;;31.79;45.71
12213;BME280;6169;44.158;22.788;2023-06-22T17:58:13;101199.47;;;31.75;46.87
12213;BME280;6169;44.158;22.788;2023-06-22T18:03:15;101201.22;;;31.44;47.00
12213;BME280;6169;44.158;22.788;2023-06-22T18:08:18;101203.06;;;31.36;48.03
12213;BME280;6169;44.158;22.788;2023-06-22T18:13:24;101198.69;;;31.04;49.18
12213;BME280;6169;44.158;22.788;2023-06-22T18:18:27;101196.84;;;30.76;49.19
12213;BME280;6169;44.158;22.788;2023-06-22T18:23:32;101203.03;;;30.22;51.67
12213;BME280;6169;44.158;22.788;2023-06-22T18:28:36;101205.84;;;30.22;52.62
12213;BME280;6169;44.158;22.788;2023-06-22T18:33:39;101199.69;;;30.16;52.94
12213;BME280;6169;44.158;22.788;2023-06-22T18:38:42;101202.75;;;30.11;53.23
12213;BME280;6169;44.158;22.788;2023-06-22T18:43:46;101208.31;;;29.95;52.15
12213;BME280;6169;44.158;22.788;2023-06-22T18:48:48;101204.78;;;29.70;52.86
12213;BME280;6169;44.158;22.788;2023-06-22T18:54:02;101209.59;;;29.70;51.89
12213;BME280;6169;44.158;22.788;2023-06-22T18:59:05;101207.63;;;29.46;52.26
12213;BME280;6169;44.158;22.788;2023-06-22T19:04:14;101210.16;;;29.23;52.58
12213;BME280;6169;44.158;22.788;2023-06-22T19:09:19;101213.41;;;29.25;52.80
12213;BME280;6169;44.158;22.788;2023-06-22T19:14:21;101219.22;;;29.32;51.11
12213;BME280;6169;44.158;22.788;2023-06-22T19:19:24;101219.72;;;28.97;51.92
12213;BME280;6169;44.158;22.788;2023-06-22T19:24:31;101218.31;;;29.03;51.17
12213;BME280;6169;44.158;22.788;2023-06-22T19:29:33;101227.53;;;28.79;53.21
12213;BME280;6169;44.158;22.788;2023-06-22T19:34:35;101215.63;;;28.58;52.29
12213;BME280;6169;44.158;22.788;2023-06-22T19:39:39;101212.09;;;28.48;54.21
12213;BME280;6169;44.158;22.788;2023-06-22T19:44:41;101202.97;;;28.27;54.96
12213;BME280;6169;44.158;22.788;2023-06-22T19:49:43;101204.97;;;28.39;54.01
12213;BME280;6169;44.158;22.788;2023-06-22T19:54:47;101212.97;;;27.95;54.89
12213;BME280;6169;44.158;22.788;2023-06-22T19:59:49;101209.34;;;28.15;53.92
12213;BME280;6169;44.158;22.788;2023-06-22T20:04:53;101206.38;;;27.78;55.71
12213;BME280;6169;44.158;22.788;2023-06-22T20:10:06;101205.94;;;27.89;55.01
12213;BME280;6169;44.158;22.788;2023-06-22T20:20:31;101213.28;;;27.60;56.56
12213;BME280;6169;44.158;22.788;2023-06-22T20:25:37;101224.38;;;27.90;55.59
12213;BME280;6169;44.158;22.788;2023-06-22T20:30:39;101209.66;;;27.80;55.29
12213;BME280;6169;44.158;22.788;2023-06-22T20:35:41;101199.78;;;27.62;56.52
12213;BME280;6169;44.158;22.788;2023-06-22T20:40:45;101195.75;;;27.72;55.37
12213;BME280;6169;44.158;22.788;2023-06-22T20:45:47;101202.16;;;27.30;56.80
12213;BME280;6169;44.158;22.788;2023-06-22T20:50:49;101196.41;;;27.06;55.99
12213;BME280;6169;44.158;22.788;2023-06-22T20:55:53;101194.53;;;27.19;56.01
12213;BME280;6169;44.158;22.788;2023-06-22T21:00:54;101179.66;;;27.06;56.58
12213;BME280;6169;44.158;22.788;2023-06-22T21:06:00;101175.00;;;26.51;58.39
12213;BME280;6169;44.158;22.788;2023-06-22T21:11:03;101182.84;;;26.57;57.99
12213;BME280;6169;44.158;22.788;2023-06-22T21:16:05;101179.66;;;26.67;58.12
12213;BME280;6169;44.158;22.788;2023-06-22T21:21:07;101182.19;;;26.90;57.59
12213;BME280;6169;44.158;22.788;2023-06-22T21:26:10;101169.88;;;26.14;58.50
12213;BME280;6169;44.158;22.788;2023-06-22T21:31:12;101165.56;;;26.17;58.73
12213;BME280;6169;44.158;22.788;2023-06-22T21:36:14;101160.41;;;25.89;59.84
12213;BME280;6169;44.158;22.788;2023-06-22T21:41:18;101162.84;;;25.99;59.17
12213;BME280;6169;44.158;22.788;2023-06-22T21:46:20;101167.63;;;25.55;60.53
12213;BME280;6169;44.158;22.788;2023-06-22T21:51:22;101153.69;;;25.29;62.32
12213;BME280;6169;44.158;22.788;2023-06-22T21:56:25;101150.56;;;25.74;61.07
12213;BME280;6169;44.158;22.788;2023-06-22T22:01:27;101166.00;;;25.80;60.59
12213;BME280;6169;44.158;22.788;2023-06-22T22:06:29;101161.72;;;25.83;60.28
12213;BME280;6169;44.158;22.788;2023-06-22T22:11:32;101164.50;;;25.92;59.94
12213;BME280;6169;44.158;22.788;2023-06-22T22:16:34;101164.34;;;25.53;61.56
12213;BME280;6169;44.158;22.788;2023-06-22T22:21:36;101163.78;;;24.99;64.40
12213;BME280;6169;44.158;22.788;2023-06-22T22:26:39;101166.97;;;25.58;62.21
12213;BME280;6169;44.158;22.788;2023-06-22T22:31:41;101176.94;;;25.94;61.13
12213;BME280;6169;44.158;22.788;2023-06-22T22:36:43;101175.59;;;26.09;60.06
12213;BME280;6169;44.158;22.788;2023-06-22T22:41:46;101168.09;;;25.66;61.54
12213;BME280;6169;44.158;22.788;2023-06-22T22:46:48;101169.91;;;25.88;59.94
12213;BME280;6169;44.158;22.788;2023-06-22T22:51:51;101167.63;;;25.47;61.50
12213;BME280;6169;44.158;22.788;2023-06-22T22:56:54;101164.50;;;25.40;61.59
12213;BME280;6169;44.158;22.788;2023-06-22T23:01:56;101171.03;;;25.35;61.59
12213;BME280;6169;44.158;22.788;2023-06-22T23:06:58;101165.50;;;25.52;60.84
12213;BME280;6169;44.158;22.788;2023-06-22T23:12:02;101165.66;;;25.30;61.78
12213;BME280;6169;44.158;22.788;2023-06-22T23:17:04;101154.53;;;25.30;60.94
12213;BME280;6169;44.158;22.788;2023-06-22T23:22:06;101151.41;;;25.31;60.55
12213;BME280;6169;44.158;22.788;2023-06-22T23:27:10;101135.66;;;25.27;60.39
12213;BME280;6169;44.158;22.788;2023-06-22T23:32:13;101132.44;;;24.67;62.33
12213;BME280;6169;44.158;22.788;2023-06-22T23:37:15;101130.31;;;24.64;62.77
12213;BME280;6169;44.158;22.788;2023-06-22T23:42:18;101128.59;;;25.21;60.72
12213;BME280;6169;44.158;22.788;2023-06-22T23:47:21;101134.13;;;24.86;61.71
12213;BME280;6169;44.158;22.788;2023-06-22T23:52:23;101128.88;;;24.76;62.39
12213;BME280;6169;44.158;22.788;2023-06-22T23:57:26;101144.47;;;24.54;62.20
